Yellowstone Lake, Wyoming
Current Conditions -  °F | °C
As of 7:55 PM on Saturday 25 Oct 2014 (Local Time) from KWYS Reporting Station
Clear Clear  
Wind Chill: 55°   Ceiling: Unl
Heat Index: 55°   Visibility: 10mi
Dew Point: 28°   Wind: 13mph
Humidity: 36%   Direction: 230°SW
Pressure: 29.94"   Gusts: 17mph
Location:  44.55°N, 110.42°W
Report Text: KWYS 260155Z AUTO 23011G15KT 10SM CLR 13/M02 A2994 RMK AO2
Loading
Personal Weather Stations






























Interactive Weather Map
Tropical Storm Tracking
New forecast layout! Learn more

10-Day Weather Forecast

Advertisements
Track Severe Weather on mobile